Time;durP1;ratioP1;P1;durP2;ratioP2;P2;SDS_P1;SDS_P2;PMS_P1;PMS_P2;Temp;Humidity;BMP_temperature;BMP_pressure;BME280_temperature;BME280_humidity;BME280_pressure;Samples;Min_cycle;Max_cycle;Signal;HPM_P1;HPM_P2
2022/09/12 00:01:42;;;;;;;4.73;3.53;;;;;;;12.97;84.90;101650.81;5075201;28;20074;-84
2022/09/12 00:04:09;;;;;;;5.17;3.50;;;;;;;12.95;85.38;101657.78;5074472;28;20404;-83
2022/09/12 00:06:36;;;;;;;6.05;3.65;;;;;;;12.94;85.28;101648.28;5075488;28;20067;-84
2022/09/12 00:09:06;;;;;;;6.70;3.83;;;;;;;12.92;84.96;101650.88;5075320;28;20029;-83
2022/09/12 00:11:35;;;;;;;4.85;3.55;;;;;;;12.89;85.02;101643.09;5074198;28;20056;-83
2022/09/12 00:14:01;;;;;;;7.35;3.90;;;;;;;12.88;85.16;101640.50;5075066;28;20024;-83
2022/09/12 00:16:28;;;;;;;5.90;3.97;;;;;;;12.88;85.08;101637.91;5074170;28;20028;-83
2022/09/12 00:18:53;;;;;;;6.30;3.90;;;;;;;12.86;85.20;101635.31;5074538;28;20035;-84
2022/09/12 00:21:20;;;;;;;5.57;3.60;;;;;;;12.85;85.31;101632.72;5075009;28;20461;-84
2022/09/12 00:23:46;;;;;;;4.88;3.30;;;;;;;12.82;85.28;101634.50;5073738;28;20124;-84
2022/09/12 00:26:12;;;;;;;5.27;3.60;;;;;;;12.81;85.45;101635.38;5074630;28;20436;-83
2022/09/12 00:28:39;;;;;;;5.53;3.67;;;;;;;12.79;85.41;101631.94;5074424;28;20077;-84
2022/09/12 00:31:07;;;;;;;4.25;3.20;;;;;;;12.78;85.69;101632.81;5073933;28;20029;-84
2022/09/12 00:33:32;;;;;;;4.80;3.45;;;;;;;12.77;85.48;101632.84;5074753;28;20104;-83
2022/09/12 00:35:58;;;;;;;6.80;3.73;;;;;;;12.75;85.52;101635.44;5074615;28;20111;-83
2022/09/12 00:38:23;;;;;;;4.97;3.43;;;;;;;12.74;85.69;101627.66;5067502;28;20033;-84
2022/09/12 00:40:48;;;;;;;5.30;3.57;;;;;;;12.70;85.83;101626.84;5054474;28;20021;-84
2022/09/12 00:43:33;;;;;;;4.87;3.33;;;;;;;12.69;85.58;101624.22;5054536;28;20130;-84
2022/09/12 00:46:03;;;;;;;6.18;3.95;;;;;;;12.70;85.83;101629.44;5070431;28;20029;-83
2022/09/12 00:48:34;;;;;;;5.38;3.60;;;;;;;12.69;85.66;101624.22;5074148;28;20027;-84
2022/09/12 00:51:00;;;;;;;5.95;3.70;;;;;;;12.66;85.90;101623.41;5074333;28;20021;-84
2022/09/12 00:53:26;;;;;;;5.00;3.58;;;;;;;12.61;85.40;101617.38;5073874;28;20020;-83
2022/09/12 00:55:53;;;;;;;6.65;4.03;;;;;;;12.62;85.80;101618.22;5072555;28;20033;-85
2022/09/12 00:58:26;;;;;;;6.25;3.97;;;;;;;12.62;85.80;101611.28;5056753;28;20068;-83
2022/09/12 01:00:52;;;;;;;6.78;4.00;;;;;;;12.61;85.87;101606.13;5053636;28;20078;-83
2022/09/12 01:03:20;;;;;;;6.10;3.90;;;;;;;12.59;86.18;101607.88;5054223;28;20041;-83
2022/09/12 01:05:57;;;;;;;6.85;4.03;;;;;;;12.55;85.64;101604.44;5053029;28;20025;-83
2022/09/12 01:08:24;;;;;;;6.68;3.90;;;;;;;12.52;85.94;101600.09;5054701;28;20029;-84
2022/09/12 01:10:49;;;;;;;6.55;4.07;;;;;;;12.52;85.92;101607.91;5054206;28;20098;-83
2022/09/12 01:13:15;;;;;;;6.27;3.90;;;;;;;12.52;85.75;101605.31;5053650;28;20119;-83
2022/09/12 01:15:40;;;;;;;7.27;3.90;;;;;;;12.49;86.06;101602.78;5053743;28;20037;-83
2022/09/12 01:18:16;;;;;;;6.00;3.90;;;;;;;12.48;86.01;101600.16;5054245;28;20025;-84
2022/09/12 01:20:50;;;;;;;6.80;4.07;;;;;;;12.47;86.18;101595.84;5053479;28;20025;-84
2022/09/12 01:23:30;;;;;;;6.72;3.92;;;;;;;12.47;86.07;101598.44;5061371;28;20032;-84
2022/09/12 01:26:41;;;;;;;5.43;3.75;;;;;;;12.41;86.00;101599.38;5074084;28;20024;-84
2022/09/12 01:29:25;;;;;;;5.70;3.55;;;;;;;12.36;86.19;101599.41;5073281;28;20090;-84
2022/09/12 01:32:02;;;;;;;5.95;3.80;;;;;;;12.32;86.05;101589.94;5054419;28;20032;-84
2022/09/12 01:34:48;;;;;;;6.15;3.88;;;;;;;12.28;86.18;101577.81;5051890;28;20083;-84
2022/09/12 01:37:27;;;;;;;5.70;3.70;;;;;;;12.25;86.31;101580.44;5052581;28;20064;-83
2022/09/12 01:40:07;;;;;;;4.85;3.35;;;;;;;12.22;86.04;101580.47;5053679;28;20025;-84
2022/09/12 01:42:45;;;;;;;4.75;3.30;;;;;;;12.18;86.23;101579.66;5052952;28;20025;-83
2022/09/12 01:45:19;;;;;;;5.35;3.40;;;;;;;12.15;86.46;101571.91;5053286;28;20035;-83
2022/09/12 01:47:49;;;;;;;5.85;3.50;;;;;;;12.17;86.41;101574.47;5053621;28;20049;-83
2022/09/12 01:50:31;;;;;;;5.10;3.22;;;;;;;12.19;86.33;101572.72;5056368;28;20503;-83
2022/09/12 01:53:07;;;;;;;4.97;3.35;;;;;;;12.21;86.68;101576.19;5073028;28;20107;-83
2022/09/12 01:55:38;;;;;;;5.68;3.70;;;;;;;12.19;86.35;101564.91;5072473;28;20028;-83
2022/09/12 01:58:08;;;;;;;6.30;4.00;;;;;;;12.18;86.53;101565.78;5073478;28;20078;-84
2022/09/12 02:00:42;;;;;;;5.63;3.70;;;;;;;12.17;86.62;101567.50;5073278;28;20027;-83
2022/09/12 02:03:13;;;;;;;5.00;3.50;;;;;;;12.18;86.86;101556.22;5072026;28;20127;-83
2022/09/12 02:05:47;;;;;;;6.07;3.78;;;;;;;12.14;86.77;101559.75;5072996;28;20027;-83
2022/09/12 02:08:21;;;;;;;5.45;3.60;;;;;;;12.14;86.82;101556.28;5073101;28;20017;-83
2022/09/12 02:10:53;;;;;;;6.22;4.00;;;;;;;12.14;86.69;101544.16;5072395;28;20099;-83
2022/09/12 02:13:34;;;;;;;5.93;3.60;;;;;;;12.15;86.71;101545.00;5073159;28;20028;-84
2022/09/12 02:16:10;;;;;;;5.50;3.60;;;;;;;12.11;86.85;101548.50;5059669;28;20033;-83
2022/09/12 02:18:39;;;;;;;6.25;3.85;;;;;;;12.06;87.22;101543.34;5053856;28;20025;-84
2022/09/12 02:21:05;;;;;;;5.03;3.60;;;;;;;12.03;86.76;101546.00;5052607;28;20470;-83
2022/09/12 02:23:33;;;;;;;6.47;3.72;;;;;;;12.02;86.83;101542.53;5052313;28;20096;-83
2022/09/12 02:26:07;;;;;;;6.72;3.97;;;;;;;12.02;86.87;101539.06;5052818;28;20017;-83
2022/09/12 02:28:36;;;;;;;5.72;3.90;;;;;;;12.00;87.01;101546.03;5052892;28;20127;-83
2022/09/12 02:31:34;;;;;;;5.75;3.70;;;;;;;11.99;86.88;101557.31;5051735;28;20039;-83
2022/09/12 02:34:18;;;;;;;6.15;3.80;;;;;;;11.95;87.37;101550.34;5052771;28;20116;-83
2022/09/12 02:37:24;;;;;;;6.10;3.65;;;;;;;11.92;86.99;101553.00;5052551;28;20029;-83
2022/09/12 02:39:54;;;;;;;7.40;3.85;;;;;;;11.89;87.26;101554.75;5052388;28;20033;-83
2022/09/12 02:42:20;;;;;;;5.68;3.67;;;;;;;11.90;87.32;101553.00;5052738;28;20377;-84
2022/09/12 02:44:45;;;;;;;5.13;3.50;;;;;;;11.88;87.02;101554.75;5058413;28;20028;-83
2022/09/12 02:47:23;;;;;;;5.93;3.90;;;;;;;11.86;87.35;101554.78;5072335;28;20028;-83
2022/09/12 02:49:49;;;;;;;5.90;3.63;;;;;;;11.85;87.29;101550.44;5072249;28;20029;-83
2022/09/12 02:52:14;;;;;;;5.10;3.33;;;;;;;11.83;87.72;101541.78;5071999;28;20017;-84
2022/09/12 02:54:40;;;;;;;4.93;3.20;;;;;;;11.80;87.27;101538.38;5072190;28;20480;-83
2022/09/12 02:57:16;;;;;;;4.55;3.13;;;;;;;11.79;87.50;101539.25;5070236;28;20158;-83
2022/09/12 02:59:41;;;;;;;4.38;3.10;;;;;;;11.77;87.52;101530.59;5071703;28;20043;-83
2022/09/12 03:02:43;;;;;;;6.60;3.70;;;;;;;11.74;87.64;101532.38;5072550;28;20036;-84
2022/09/12 03:05:08;;;;;;;6.10;3.65;;;;;;;11.75;87.55;101533.22;5072618;28;20397;-83
2022/09/12 03:08:11;;;;;;;5.77;3.57;;;;;;;11.74;87.47;101526.28;5071461;28;20017;-84
2022/09/12 03:10:55;;;;;;;6.07;3.70;;;;;;;11.75;87.83;101525.41;5072390;28;20025;-83
2022/09/12 03:13:42;;;;;;;5.30;3.30;;;;;;;11.73;87.70;101516.75;5071551;28;20033;-83
2022/09/12 03:16:19;;;;;;;5.18;3.40;;;;;;;11.72;87.54;101523.72;5072348;28;20391;-83
2022/09/12 03:18:50;;;;;;;;;;;;;;;11.71;87.67;101513.31;5072485;28;20077;-84
2022/09/12 03:21:22;;;;;;;5.53;3.40;;;;;;;11.70;87.72;101516.81;5071638;28;19921;-84
2022/09/12 03:24:25;;;;;;;4.85;3.35;;;;;;;11.69;87.69;101520.28;5072275;28;20435;-83
2022/09/12 03:27:05;;;;;;;5.53;3.60;;;;;;;11.68;87.92;101514.19;5071120;28;20032;-83
2022/09/12 03:29:31;;;;;;;5.03;3.38;;;;;;;11.68;87.75;101515.94;5071849;28;20025;-83
2022/09/12 03:31:57;;;;;;;4.30;3.05;;;;;;;11.67;87.91;101507.28;5071687;28;20039;-83
2022/09/12 03:34:25;;;;;;;5.20;3.33;;;;;;;11.67;87.87;101516.81;5071082;28;20033;-83
2022/09/12 03:36:51;;;;;;;5.68;3.40;;;;;;;11.68;88.10;101518.56;5072241;28;20480;-84
2022/09/12 03:39:16;;;;;;;4.70;3.13;;;;;;;11.67;87.96;101515.06;5067841;28;20021;-83
2022/09/12 03:41:42;;;;;;;4.73;3.13;;;;;;;11.67;88.09;101516.81;5051205;28;20286;-83
2022/09/12 03:44:07;;;;;;;4.17;3.13;;;;;;;11.66;88.25;101512.50;5051914;28;20025;-83
2022/09/12 03:46:33;;;;;;;4.77;3.30;;;;;;;11.67;88.18;101511.63;5052360;28;20162;-83
2022/09/12 03:48:58;;;;;;;5.97;3.53;;;;;;;11.67;88.17;101506.44;5051424;28;20033;-83
2022/09/12 03:51:24;;;;;;;6.77;3.87;;;;;;;11.68;88.03;101508.16;5051690;28;20032;-84
2022/09/12 03:53:49;;;;;;;6.20;3.77;;;;;;;11.68;88.47;101511.59;5051781;28;20112;-84
2022/09/12 03:56:14;;;;;;;4.87;3.30;;;;;;;11.69;88.43;101515.09;5051219;28;20025;-83
2022/09/12 03:58:40;;;;;;;4.60;3.23;;;;;;;11.68;88.50;101513.34;5051717;28;20021;-82
2022/09/12 04:01:14;;;;;;;4.30;3.20;;;;;;;11.67;88.44;101502.06;5055693;28;20021;-83
2022/09/12 04:03:41;;;;;;;5.20;3.47;;;;;;;11.67;88.45;101504.66;5055159;28;20037;-82
2022/09/12 04:06:08;;;;;;;5.22;3.30;;;;;;;11.66;88.42;101495.16;5075739;28;20050;-84
2022/09/12 04:08:35;;;;;;;6.25;3.60;;;;;;;11.67;88.90;101501.22;5055025;28;20031;-82
2022/09/12 04:11:06;;;;;;;6.15;3.25;;;;;;;11.66;88.55;101499.50;5054861;28;20103;-82
2022/09/12 04:13:32;;;;;;;4.32;3.10;;;;;;;11.65;88.50;101493.41;5055610;28;20017;-82
2022/09/12 04:15:59;;;;;;;6.03;3.67;;;;;;;11.64;88.61;101490.84;5054035;28;20029;-82
2022/09/12 04:18:24;;;;;;;5.13;3.30;;;;;;;11.63;88.66;101490.00;5070779;28;20029;-82
2022/09/12 04:20:50;;;;;;;5.13;3.03;;;;;;;11.63;88.70;101486.50;5075052;28;20032;-82
2022/09/12 04:23:15;;;;;;;4.60;3.00;;;;;;;11.62;88.67;101487.38;5074482;28;20045;-82
2022/09/12 04:25:40;;;;;;;6.37;3.57;;;;;;;11.63;88.70;101486.50;5074813;28;20062;-84
2022/09/12 04:28:06;;;;;;;4.50;3.10;;;;;;;11.62;88.71;101483.06;5074698;28;20333;-85
2022/09/12 04:30:32;;;;;;;6.27;3.60;;;;;;;11.64;88.79;101486.53;5074620;28;20027;-83
2022/09/12 04:32:58;;;;;;;6.65;3.78;;;;;;;11.65;88.69;101480.41;5074782;28;20020;-85
2022/09/12 04:35:23;;;;;;;6.00;3.70;;;;;;;11.68;88.87;101480.41;5072728;28;20029;-85
2022/09/12 04:37:48;;;;;;;5.43;3.50;;;;;;;11.70;88.92;101481.25;5073755;28;20100;-85
2022/09/12 04:40:14;;;;;;;5.13;3.30;;;;;;;11.72;88.88;101483.81;5066161;28;20025;-85
2022/09/12 04:42:39;;;;;;;6.40;3.50;;;;;;;11.74;89.37;101479.47;5054374;28;20029;-85
2022/09/12 04:45:05;;;;;;;5.67;3.30;;;;;;;11.73;89.56;101473.44;5054187;28;20021;-85
2022/09/12 04:47:30;;;;;;;5.13;3.27;;;;;;;11.76;89.26;101469.09;5054812;28;20485;-85
2022/09/12 04:49:55;;;;;;;5.00;3.37;;;;;;;11.79;89.53;101474.22;5054330;28;20112;-85
2022/09/12 04:52:21;;;;;;;5.47;3.07;;;;;;;11.81;89.70;101467.28;5053878;28;20020;-85
2022/09/12 04:54:46;;;;;;;4.93;2.97;;;;;;;11.81;89.96;101467.28;5053851;28;20033;-85
2022/09/12 04:57:12;;;;;;;4.90;3.07;;;;;;;11.86;89.82;101470.72;5054766;28;20108;-85
2022/09/12 04:59:37;;;;;;;4.23;2.73;;;;;;;11.87;89.70;101468.06;5053325;28;20029;-85
2022/09/12 05:02:02;;;;;;;4.53;3.00;;;;;;;11.89;89.79;101474.13;5061223;28;20052;-85
2022/09/12 05:04:28;;;;;;;4.50;2.90;;;;;;;11.92;89.78;101480.19;5073541;28;20383;-85
2022/09/12 05:06:53;;;;;;;4.90;3.10;;;;;;;11.94;89.73;101473.19;5073090;28;20078;-86
2022/09/12 05:09:18;;;;;;;5.87;3.47;;;;;;;11.95;89.84;101481.00;5074336;28;20047;-86
2022/09/12 05:11:44;;;;;;;5.80;3.53;;;;;;;11.97;89.64;101480.97;5073252;28;20108;-86
2022/09/12 05:14:10;;;;;;;4.90;3.13;;;;;;;11.99;89.87;101481.84;5073128;28;20473;-86
2022/09/12 05:16:36;;;;;;;5.82;3.30;;;;;;;11.99;90.15;101477.50;5074275;28;20028;-86
2022/09/12 05:19:01;;;;;;;3.80;2.70;;;;;;;12.01;89.93;101480.97;5073555;28;20031;-86
2022/09/12 05:21:26;;;;;;;4.80;3.03;;;;;;;12.02;90.05;101482.69;5073822;28;20055;-86
2022/09/12 05:23:58;;;;;;;5.07;3.40;;;;;;;12.05;90.12;101485.25;5073816;28;20153;-85
2022/09/12 05:26:24;;;;;;;6.63;3.80;;;;;;;12.09;90.07;101475.66;5073241;28;20020;-86
2022/09/12 05:28:51;;;;;;;5.73;3.17;;;;;;;12.11;90.08;101484.31;5071983;28;20031;-86
2022/09/12 05:31:25;;;;;;;5.20;3.40;;;;;;;12.11;90.08;101484.31;5073684;28;20025;-86
2022/09/12 05:33:52;;;;;;;5.65;3.22;;;;;;;12.13;89.95;101479.97;5072658;28;20465;-86
2022/09/12 05:36:19;;;;;;;6.20;3.58;;;;;;;12.14;89.85;101481.69;5060426;28;20047;-86
2022/09/12 05:38:46;;;;;;;5.60;3.33;;;;;;;12.15;89.91;101478.22;5068284;28;20029;-86
2022/09/12 05:41:14;;;;;;;5.93;3.47;;;;;;;12.17;91.06;101478.19;5073019;28;20024;-86
2022/09/12 05:43:41;;;;;;;5.55;3.55;;;;;;;12.16;90.23;101479.91;5062678;28;20028;-83
2022/09/12 05:46:15;;;;;;;5.18;3.38;;;;;;;12.17;90.06;101480.78;5054819;28;20028;-95
2022/09/12 05:48:42;;;;;;;6.05;3.67;;;;;;;12.21;89.94;101487.69;5066035;28;20078;-94
2022/09/12 05:51:10;;;;;;;5.43;3.38;;;;;;;12.23;90.32;101485.91;5073124;28;20024;-94
2022/09/12 05:53:36;;;;;;;7.05;4.05;;;;;;;12.26;90.35;101485.88;5074274;28;20460;-94
2022/09/12 05:56:06;;;;;;;7.05;4.22;;;;;;;12.29;90.25;101485.84;5073603;28;20016;-94
2022/09/12 05:58:32;;;;;;;6.38;3.90;;;;;;;12.33;90.00;101487.53;5075953;28;20092;-93
2022/09/12 06:01:02;;;;;;;6.28;3.60;;;;;;;12.36;90.47;101492.69;5068423;28;20047;-93
2022/09/12 06:03:27;;;;;;;4.78;3.25;;;;;;;12.39;90.24;101494.38;5054104;28;20049;-92
2022/09/12 06:05:53;;;;;;;5.70;3.40;;;;;;;12.41;90.12;101500.44;5053898;28;20113;-90
2022/09/12 06:08:18;;;;;;;4.87;3.13;;;;;;;12.44;90.21;101502.16;5065808;28;20024;-89
2022/09/12 06:10:43;;;;;;;4.90;3.30;;;;;;;12.47;90.42;101508.19;5071648;28;20028;-89
2022/09/12 06:13:09;;;;;;;5.50;3.40;;;;;;;12.50;90.05;101502.94;5073881;28;20100;-91
2022/09/12 06:15:34;;;;;;;5.90;3.43;;;;;;;12.54;90.64;101505.50;5072299;28;20025;-91
2022/09/12 06:17:59;;;;;;;6.27;3.70;;;;;;;12.54;90.44;101506.38;5074132;28;20550;-92
2022/09/12 06:20:24;;;;;;;5.50;3.47;;;;;;;12.54;90.50;101501.16;5074020;28;20024;-92
2022/09/12 06:22:52;;;;;;;8.33;4.07;;;;;;;12.53;91.39;101502.06;5073633;28;20025;-92
2022/09/12 06:25:17;;;;;;;6.22;3.80;;;;;;;12.52;91.14;101498.56;5073824;28;20056;-91
2022/09/12 06:27:43;;;;;;;7.73;4.40;;;;;;;12.48;91.34;101498.63;5072116;28;20101;-94
2022/09/12 06:30:08;;;;;;;8.40;4.63;;;;;;;12.45;91.45;101494.34;5074103;28;20369;-94
2022/09/12 06:32:34;;;;;;;7.10;4.10;;;;;;;12.43;91.81;101493.47;5073963;28;20485;-94
2022/09/12 06:34:59;;;;;;;5.90;3.70;;;;;;;12.43;91.52;101487.44;5073928;28;20385;-93
2022/09/12 06:37:25;;;;;;;5.60;3.47;;;;;;;12.42;91.84;101488.31;5073027;28;20483;-94
2022/09/12 06:39:50;;;;;;;4.93;3.20;;;;;;;12.43;91.34;101492.63;5072268;28;20036;-93
2022/09/12 06:42:15;;;;;;;7.13;3.90;;;;;;;12.46;91.18;101493.47;5073820;28;20028;-95
2022/09/12 06:44:40;;;;;;;8.00;4.33;;;;;;;12.47;92.88;101494.31;5073192;28;20021;-92
2022/09/12 06:47:06;;;;;;;5.97;3.73;;;;;;;12.50;92.01;101494.28;5071652;28;20067;-92
2022/09/12 06:49:32;;;;;;;7.67;4.20;;;;;;;12.67;94.28;101486.22;5073730;28;20365;-91
2022/09/12 06:51:57;;;;;;;8.40;4.50;;;;;;;13.07;94.51;101490.84;5072173;28;20044;-87
2022/09/12 06:54:25;;;;;;;8.37;4.77;;;;;;;13.94;95.82;101491.16;5072554;28;20483;-87
2022/09/12 06:56:51;;;;;;;9.20;5.10;;;;;;;15.96;94.18;101487.47;5072395;28;20388;-87
2022/09/12 06:59:16;;;;;;;13.73;7.07;;;;;;;18.18;82.23;101486.53;5071638;28;20047;-87
2022/09/12 07:01:41;;;;;;;13.30;6.70;;;;;;;19.54;83.67;101486.44;5072227;28;20025;-87
2022/09/12 07:04:07;;;;;;;10.20;5.23;;;;;;;20.73;78.46;101489.94;5072367;28;20382;-87
2022/09/12 07:06:40;;;;;;;8.23;4.53;;;;;;;21.28;75.55;101499.56;5070177;28;20067;-87
2022/09/12 07:09:09;;;;;;;7.07;4.22;;;;;;;20.62;74.42;101496.56;5072011;28;20025;-87
2022/09/12 07:11:36;;;;;;;5.60;3.70;;;;;;;19.61;74.76;101487.03;5071658;28;20027;-87
2022/09/12 07:14:04;;;;;;;7.03;4.40;;;;;;;18.75;75.65;101491.41;5072518;28;20036;-89
2022/09/12 07:16:29;;;;;;;6.72;4.13;;;;;;;18.08;77.37;101487.78;5072313;28;20028;-87
2022/09/12 07:18:57;;;;;;;9.23;4.97;;;;;;;17.51;77.53;101491.47;5071435;28;20103;-87
2022/09/12 07:21:23;;;;;;;7.07;4.20;;;;;;;17.07;79.13;101480.69;5070351;28;20044;-87
2022/09/12 07:23:50;;;;;;;6.87;4.33;;;;;;;16.70;80.05;101477.44;5072373;28;20106;-88
2022/09/12 07:26:16;;;;;;;8.23;4.80;;;;;;;16.44;81.47;101475.63;5071189;28;20499;-88
2022/09/12 07:28:42;;;;;;;8.53;4.80;;;;;;;16.23;82.02;101466.63;5071893;28;20103;-88
2022/09/12 07:31:15;;;;;;;7.47;4.80;;;;;;;16.03;82.89;101471.53;5072485;28;20051;-87
2022/09/12 07:33:41;;;;;;;8.88;4.80;;;;;;;15.92;83.26;101473.59;5069140;28;20020;-88
2022/09/12 07:36:10;;;;;;;15.43;8.10;;;;;;;15.77;84.40;101477.44;5075784;28;20036;-88
2022/09/12 07:38:36;;;;;;;15.27;7.75;;;;;;;15.65;84.40;101470.78;5076314;28;20095;-87
2022/09/12 07:41:19;;;;;;;16.08;8.30;;;;;;;15.60;85.27;101484.00;5075264;28;20021;-88
2022/09/12 07:43:45;;;;;;;13.05;6.80;;;;;;;15.61;85.98;101479.59;5075495;28;20024;-87
2022/09/12 07:46:11;;;;;;;13.33;7.13;;;;;;;15.66;86.36;101487.34;5074483;28;20381;-87
2022/09/12 07:48:37;;;;;;;16.80;9.20;;;;;;;15.66;86.38;101484.72;5074342;28;20016;-87
2022/09/12 07:51:06;;;;;;;12.57;6.95;;;;;;;15.72;86.02;101484.56;5055315;28;20017;-87
2022/09/12 07:53:36;;;;;;;13.80;7.35;;;;;;;15.74;87.08;101481.00;5055786;28;20113;-88
2022/09/12 07:56:03;;;;;;;10.57;6.20;;;;;;;15.80;86.66;101485.22;5055667;28;20029;-88
2022/09/12 07:58:30;;;;;;;10.30;5.85;;;;;;;15.88;87.33;101490.28;5055640;28;20036;-88
2022/09/12 08:01:12;;;;;;;15.50;8.18;;;;;;;15.99;87.99;101489.97;5054429;28;20545;-88
2022/09/12 08:03:38;;;;;;;14.07;7.55;;;;;;;16.04;87.15;101488.94;5055217;28;20094;-87
2022/09/12 08:06:14;;;;;;;13.18;7.18;;;;;;;16.15;87.45;101480.78;5055607;28;20029;-87
2022/09/12 08:08:40;;;;;;;13.63;7.28;;;;;;;16.26;87.26;101480.50;5054332;28;20023;-87
2022/09/12 08:11:08;;;;;;;12.65;6.85;;;;;;;16.38;87.02;101487.13;5055516;28;20031;-87
2022/09/12 08:13:35;;;;;;;10.60;6.03;;;;;;;16.48;86.49;101488.56;5056581;28;20086;-87
2022/09/12 08:16:04;;;;;;;11.35;6.00;;;;;;;16.60;87.15;101494.34;5053682;28;20028;-87
2022/09/12 08:18:31;;;;;;;12.98;7.28;;;;;;;16.72;86.37;101487.91;5054957;28;20036;-87
2022/09/12 08:20:58;;;;;;;12.05;6.50;;;;;;;16.82;87.00;101486.69;5055033;28;20050;-86
2022/09/12 08:23:24;;;;;;;8.73;4.63;;;;;;;16.92;86.39;101490.75;5054591;28;20104;-87
2022/09/12 08:25:49;;;;;;;10.20;5.93;;;;;;;17.02;86.49;101488.69;5054630;28;20492;-86
2022/09/12 08:28:15;;;;;;;14.43;7.43;;;;;;;17.13;85.61;101494.47;5054589;28;20119;-87
2022/09/12 08:30:40;;;;;;;11.77;6.70;;;;;;;17.26;85.51;101501.94;5054164;28;20025;-87
2022/09/12 08:33:06;;;;;;;12.23;6.10;;;;;;;17.37;85.71;101501.59;5055015;28;20021;-86
2022/09/12 08:35:32;;;;;;;9.95;5.57;;;;;;;17.49;85.94;101508.19;5055428;28;20025;-87
2022/09/12 08:37:57;;;;;;;11.13;6.00;;;;;;;17.60;85.24;101504.28;5053626;28;20017;-87
2022/09/12 08:40:23;;;;;;;8.80;5.10;;;;;;;17.70;84.54;101504.81;5065379;28;20024;-87
2022/09/12 08:42:59;;;;;;;6.80;4.47;;;;;;;17.84;84.36;101508.72;5072452;28;20362;-86
2022/09/12 08:45:41;;;;;;;7.53;4.80;;;;;;;17.99;84.32;101500.34;5054103;28;20075;-87
2022/09/12 08:48:09;;;;;;;9.65;5.70;;;;;;;18.12;83.11;101502.53;5054753;28;20033;-86
2022/09/12 08:50:34;;;;;;;11.13;6.43;;;;;;;18.27;83.09;101496.69;5054144;28;20118;-87
2022/09/12 08:53:15;;;;;;;8.47;5.07;;;;;;;18.42;83.69;101491.78;5054602;28;20059;-87
2022/09/12 08:55:51;;;;;;;6.40;4.45;;;;;;;18.55;83.09;101495.66;5054086;28;20036;-87
2022/09/12 08:58:19;;;;;;;12.77;7.00;;;;;;;18.71;80.07;101489.78;5053753;28;20021;-87
2022/09/12 09:01:30;;;;;;;13.55;7.10;;;;;;;18.87;81.28;101493.53;5054046;28;20461;-86
2022/09/12 09:04:17;;;;;;;13.93;7.80;;;;;;;19.01;80.75;101497.44;5016049;28;20167;-87
2022/09/12 09:07:16;;;;;;;14.68;8.30;;;;;;;19.12;79.70;101497.84;5054271;28;20041;-87
2022/09/12 09:10:01;;;;;;;11.48;6.95;;;;;;;19.22;79.52;101490.41;5055207;28;20042;-87
2022/09/12 09:12:47;;;;;;;7.18;4.78;;;;;;;19.36;80.55;101493.34;5053031;28;20036;-87
2022/09/12 09:15:24;;;;;;;7.93;4.95;;;;;;;19.49;79.98;101482.28;5054106;28;20032;-87
2022/09/12 09:18:15;;;;;;;7.43;4.72;;;;;;;19.63;79.67;101484.31;5054147;28;20052;-87
2022/09/12 09:20:48;;;;;;;4.35;3.60;;;;;;;19.74;76.53;101482.06;5053821;28;20392;-87
2022/09/12 09:23:27;;;;;;;6.82;4.38;;;;;;;19.82;78.70;101471.22;5053966;28;20021;-87
2022/09/12 09:25:56;;;;;;;9.80;5.65;;;;;;;19.91;75.66;101470.81;5052766;28;20106;-86
2022/09/12 09:28:34;;;;;;;6.38;4.18;;;;;;;19.99;78.33;101471.31;5054216;28;20039;-87
2022/09/12 09:31:00;;;;;;;5.55;3.70;;;;;;;20.15;78.66;101470.63;5053130;28;20393;-87
2022/09/12 09:33:32;;;;;;;4.10;3.30;;;;;;;20.34;78.75;101470.66;5054054;28;20480;-86
2022/09/12 09:36:10;;;;;;;4.18;3.28;;;;;;;20.46;76.92;101466.56;5057723;28;20051;-87
2022/09/12 09:38:42;;;;;;;5.28;3.38;;;;;;;20.59;75.94;101469.50;5073317;28;20028;-87
2022/09/12 09:41:22;;;;;;;6.78;4.63;;;;;;;20.69;71.37;101465.50;5072517;28;20032;-86
2022/09/12 09:43:47;;;;;;;6.88;4.60;;;;;;;20.80;76.37;101471.13;5073342;28;20043;-86
2022/09/12 09:46:14;;;;;;;5.67;3.80;;;;;;;20.90;72.00;101478.59;5071082;28;20544;-86
2022/09/12 09:48:46;;;;;;;6.55;4.50;;;;;;;21.01;74.49;101464.88;5072781;28;20568;-87
2022/09/12 09:51:14;;;;;;;6.47;4.30;;;;;;;21.14;73.38;101455.41;5073542;28;20024;-86
2022/09/12 09:53:44;;;;;;;4.30;3.47;;;;;;;21.28;72.05;101454.69;5073750;28;20107;-88
2022/09/12 09:56:32;;;;;;;7.38;4.88;;;;;;;21.37;71.69;101456.03;5056210;28;20111;-89
2022/09/12 09:59:13;;;;;;;6.25;4.35;;;;;;;21.47;70.55;101445.84;5035666;28;20056;-85
2022/09/12 10:02:02;;;;;;;6.25;4.10;;;;;;;21.63;72.76;101441.50;5052576;28;20423;-85
2022/09/12 10:04:37;;;;;;;7.95;5.05;;;;;;;21.75;72.07;101430.28;5053470;28;20065;-84
2022/09/12 10:07:03;;;;;;;5.82;3.65;;;;;;;21.86;71.48;101432.38;5052925;28;20104;-83
2022/09/12 10:09:34;;;;;;;7.72;4.85;;;;;;;21.95;67.45;101430.16;5052635;28;20128;-82
2022/09/12 10:12:18;;;;;;;4.93;3.70;;;;;;;22.04;70.67;101429.66;5054003;28;20355;-83
2022/09/12 10:14:56;;;;;;;4.18;3.40;;;;;;;22.19;65.53;101425.31;5052033;28;20036;-82
2022/09/12 10:17:42;;;;;;;5.35;3.70;;;;;;;22.28;68.51;101416.91;5053100;28;20032;-83
2022/09/12 10:20:31;;;;;;;6.10;4.10;;;;;;;22.33;63.88;101416.63;5053196;28;20053;-85
2022/09/12 10:22:59;;;;;;;6.40;4.40;;;;;;;22.33;64.67;101408.69;5062827;28;20571;-84
2022/09/12 10:25:26;;;;;;;4.82;3.25;;;;;;;22.41;67.65;101413.56;5072812;28;20053;-84
2022/09/12 10:27:55;;;;;;;4.88;3.88;;;;;;;22.50;64.93;101413.91;5072584;28;20024;-84
2022/09/12 10:30:23;;;;;;;4.50;3.63;;;;;;;22.57;64.58;101401.19;5071947;28;20025;-80
2022/09/12 10:32:50;;;;;;;3.50;3.03;;;;;;;22.73;67.10;101405.59;5072127;28;20495;-80
2022/09/12 10:35:29;;;;;;;4.88;3.70;;;;;;;22.90;64.65;101399.34;5072519;28;20066;-85
2022/09/12 10:38:05;;;;;;;3.22;2.80;;;;;;;22.99;65.60;101406.72;5072640;28;20060;-84
2022/09/12 10:40:39;;;;;;;4.53;3.10;;;;;;;23.08;62.36;101400.88;5073082;28;20028;-85
2022/09/12 10:43:26;;;;;;;4.35;3.33;;;;;;;23.12;63.05;101397.13;5072413;28;20043;-85
2022/09/12 10:45:55;;;;;;;3.45;3.10;;;;;;;23.16;64.85;101392.50;5070687;28;20534;-85
2022/09/12 10:48:28;;;;;;;4.30;2.97;;;;;;;23.30;60.59;101389.03;5072920;28;20021;-84
2022/09/12 10:50:55;;;;;;;3.10;2.80;;;;;;;23.38;63.86;101378.81;5069626;28;20028;-87
2022/09/12 10:53:20;;;;;;;2.75;2.55;;;;;;;23.49;62.49;101372.00;5058062;28;20029;-87
2022/09/12 10:56:01;;;;;;;3.40;3.00;;;;;;;23.62;58.92;101372.13;5052607;28;20029;-87
2022/09/12 10:58:49;;;;;;;3.47;2.85;;;;;;;23.66;59.76;101369.19;5052278;28;20032;-86
2022/09/12 11:01:40;;;;;;;5.65;3.60;;;;;;;23.65;57.58;101372.78;5052312;28;20024;-83
2022/09/12 11:04:27;;;;;;;3.85;3.40;;;;;;;23.68;55.20;101366.41;5051603;28;20041;-83
2022/09/12 11:07:00;;;;;;;3.92;3.10;;;;;;;23.72;59.29;101360.81;5053346;28;20029;-87
2022/09/12 11:09:53;;;;;;;3.40;3.00;;;;;;;23.80;56.15;101360.34;5056290;28;20052;-82
2022/09/12 11:12:37;;;;;;;3.10;2.80;;;;;;;23.88;56.98;101357.22;5055947;28;20025;-84
2022/09/12 11:15:30;;;;;;;3.30;3.00;;;;;;;23.99;59.69;101352.13;5056528;28;20108;-84
2022/09/12 11:18:16;;;;;;;3.97;3.17;;;;;;;24.08;53.48;101355.13;5055540;28;20029;-83
2022/09/12 11:20:45;;;;;;;4.38;3.10;;;;;;;24.13;60.42;101363.63;5057158;28;20374;-83
2022/09/12 11:23:16;;;;;;;4.07;2.88;;;;;;;24.20;59.31;101352.53;5056333;28;20028;-84
2022/09/12 11:26:06;;;;;;;3.53;2.97;;;;;;;24.26;58.34;101353.06;5055338;28;20029;-83
2022/09/12 11:28:48;;;;;;;3.05;2.72;;;;;;;24.32;58.05;101350.88;5055857;28;20231;-83
2022/09/12 11:31:58;;;;;;;4.50;3.70;;;;;;;24.22;55.53;101347.13;5056481;28;20029;-84
2022/09/12 11:35:02;;;;;;;3.88;2.90;;;;;;;24.33;58.02;101341.97;5056181;28;20039;-84
2022/09/12 11:37:55;;;;;;;2.57;2.37;;;;;;;24.45;58.06;101345.59;5055658;28;20036;-82
2022/09/12 11:40:51;;;;;;;2.50;2.30;;;;;;;24.56;55.81;101339.59;5055439;28;20036;-84
2022/09/12 11:43:41;;;;;;;3.67;3.28;;;;;;;24.64;55.04;101349.69;5055983;28;20029;-85
2022/09/12 11:46:21;;;;;;;4.35;3.20;;;;;;;24.56;54.95;101350.19;5055793;28;20025;-84